Time;durP1;ratioP1;P1;durP2;ratioP2;P2;SDS_P1;SDS_P2;PMS_P1;PMS_P2;Temp;Humidity;BMP_temperature;BMP_pressure;BME280_temperature;BME280_humidity;BME280_pressure;Samples;Min_cycle;Max_cycle;Signal;HPM_P1;HPM_P2
2023/07/19 00:02:11;;;;;;;7.03;2.88;;;20.40;95.80;;;;;;5021969;28;20756;-70
2023/07/19 00:05:02;;;;;;;4.80;2.72;;;20.40;95.70;;;;;;5020162;28;20304;-72
2023/07/19 00:07:51;;;;;;;7.32;2.50;;;20.30;95.70;;;;;;5017530;28;20230;-71
2023/07/19 00:10:40;;;;;;;8.35;2.33;;;20.30;95.50;;;;;;5036532;28;20236;-70
2023/07/19 00:13:29;;;;;;;5.18;2.42;;;20.20;95.70;;;;;;5019295;28;20226;-71
2023/07/19 00:16:18;;;;;;;8.80;2.42;;;20.10;95.00;;;;;;4998440;28;20301;-70
2023/07/19 00:19:07;;;;;;;3.83;2.20;;;20.00;95.60;;;;;;5021906;28;20944;-71
2023/07/19 00:22:10;;;;;;;4.18;2.10;;;20.10;95.80;;;;;;5011443;28;20258;-71
2023/07/19 00:24:59;;;;;;;5.68;2.38;;;20.10;95.40;;;;;;4995897;28;20230;-69
2023/07/19 00:27:48;;;;;;;8.68;2.88;;;20.10;96.00;;;;;;5014883;28;20228;-69
2023/07/19 00:30:37;;;;;;;5.85;2.60;;;20.10;96.20;;;;;;5012295;28;20230;-69
2023/07/19 00:33:26;;;;;;;5.25;2.30;;;20.20;96.80;;;;;;5015247;28;20305;-69
2023/07/19 00:36:15;;;;;;;4.82;2.60;;;20.10;96.40;;;;;;5018117;28;20757;-69
2023/07/19 00:39:05;;;;;;;5.72;2.53;;;20.00;96.90;;;;;;5018742;28;20337;-69
2023/07/19 00:41:57;;;;;;;6.78;2.67;;;20.00;97.10;;;;;;5017690;28;20232;-69
2023/07/19 00:44:46;;;;;;;6.15;2.67;;;19.90;97.40;;;;;;5005935;28;20218;-70
2023/07/19 00:47:35;;;;;;;3.17;2.20;;;19.90;97.50;;;;;;4998518;28;20685;-70
2023/07/19 00:50:25;;;;;;;4.15;2.50;;;19.90;97.40;;;;;;4995669;28;20227;-69
2023/07/19 00:53:14;;;;;;;6.20;2.42;;;19.90;97.20;;;;;;4995247;28;20222;-71
2023/07/19 00:56:05;;;;;;;6.03;2.50;;;19.70;97.50;;;;;;4998969;28;20237;-69
2023/07/19 00:58:54;;;;;;;5.10;2.45;;;19.70;97.30;;;;;;5010183;28;20229;-70
2023/07/19 01:01:44;;;;;;;4.38;2.50;;;19.80;97.60;;;;;;4994519;28;20740;-69
2023/07/19 01:04:34;;;;;;;7.38;2.50;;;19.80;97.90;;;;;;4992323;28;20229;-68
2023/07/19 01:07:24;;;;;;;8.73;2.95;;;19.60;97.70;;;;;;4986349;28;20759;-69
2023/07/19 01:10:13;;;;;;;5.60;3.00;;;19.70;98.00;;;;;;4999905;28;20993;-68
2023/07/19 01:13:07;;;;;;;5.50;2.65;;;19.70;98.50;;;;;;4991174;28;20977;-70
2023/07/19 01:15:56;;;;;;;6.45;2.70;;;19.70;98.60;;;;;;4983140;28;20235;-69
2023/07/19 01:18:45;;;;;;;2.45;1.95;;;19.60;98.40;;;;;;5011705;28;20237;-70
2023/07/19 01:21:34;;;;;;;7.90;2.90;;;19.70;98.30;;;;;;4997843;28;20229;-68
2023/07/19 01:24:25;;;;;;;4.32;2.53;;;19.70;98.20;;;;;;4997103;28;20268;-67
2023/07/19 01:27:14;;;;;;;4.28;2.33;;;19.70;98.30;;;;;;4992406;28;20257;-68
2023/07/19 01:30:15;;;;;;;4.65;2.70;;;19.60;98.20;;;;;;4995955;28;20246;-65
2023/07/19 01:33:04;;;;;;;6.57;2.92;;;19.60;98.50;;;;;;4994863;28;20215;-69
2023/07/19 01:36:05;;;;;;;10.07;2.78;;;19.60;98.60;;;;;;5012325;28;20242;-68
2023/07/19 01:38:54;;;;;;;6.03;2.60;;;19.50;98.50;;;;;;5003693;28;20630;-69
2023/07/19 01:41:44;;;;;;;3.47;2.30;;;19.50;98.60;;;;;;4996446;28;20230;-69
2023/07/19 01:44:33;;;;;;;6.13;2.38;;;19.50;99.00;;;;;;5012524;28;20214;-70
2023/07/19 01:47:22;;;;;;;7.05;2.80;;;19.30;99.40;;;;;;5013696;28;20225;-69
2023/07/19 01:50:14;;;;;;;4.88;2.35;;;19.30;99.60;;;;;;5008097;28;20225;-68
2023/07/19 01:53:03;;;;;;;5.70;2.80;;;19.30;99.40;;;;;;5012374;28;20305;-68
2023/07/19 01:55:52;;;;;;;5.18;2.45;;;19.30;99.80;;;;;;5010285;28;20222;-68
2023/07/19 01:58:42;;;;;;;7.35;2.70;;;19.40;99.90;;;;;;5016201;28;20229;-69
2023/07/19 02:01:31;;;;;;;4.07;2.30;;;19.20;99.90;;;;;;5031827;28;20239;-68
2023/07/19 02:04:20;;;;;;;3.38;2.60;;;19.20;99.90;;;;;;5008154;28;20209;-68
2023/07/19 02:07:09;;;;;;;6.78;2.78;;;19.20;99.90;;;;;;5000531;28;20677;-68
2023/07/19 02:09:58;;;;;;;4.43;2.78;;;19.10;99.90;;;;;;5031660;28;20240;-67
2023/07/19 02:12:47;;;;;;;4.13;2.40;;;19.10;99.90;;;;;;5005589;28;20311;-67
2023/07/19 02:15:38;;;;;;;4.20;2.58;;;19.10;99.90;;;;;;5013515;28;20226;-69
2023/07/19 02:18:27;;;;;;;5.30;2.75;;;19.00;99.90;;;;;;5015862;28;20260;-69
2023/07/19 02:21:15;;;;;;;7.50;2.70;;;19.10;99.90;;;;;;5010004;28;20218;-71
2023/07/19 02:24:05;;;;;;;6.35;2.92;;;19.10;99.90;;;;;;5016072;28;20263;-69
2023/07/19 02:26:54;;;;;;;8.25;2.90;;;19.00;99.90;;;;;;5015013;28;20345;-69
2023/07/19 02:29:43;;;;;;;7.47;2.72;;;19.10;99.90;;;;;;5013531;28;20289;-70
2023/07/19 02:32:33;;;;;;;13.02;3.20;;;19.10;99.90;;;;;;5011754;28;20587;-70
2023/07/19 02:35:22;;;;;;;9.82;3.22;;;19.00;99.90;;;;;;5004282;28;20244;-70
2023/07/19 02:38:20;;;;;;;9.35;3.30;;;18.80;99.90;;;;;;5020988;28;20688;-70
2023/07/19 02:41:10;;;;;;;5.32;3.10;;;18.90;99.90;;;;;;5007925;28;20225;-71
2023/07/19 02:43:59;;;;;;;4.32;3.17;;;19.00;99.90;;;;;;5022828;28;20214;-69
2023/07/19 02:46:48;;;;;;;9.95;2.80;;;19.00;99.90;;;;;;5025858;28;20869;-66
2023/07/19 02:49:38;;;;;;;9.82;3.20;;;19.00;99.90;;;;;;5025170;28;20229;-69
2023/07/19 02:52:28;;;;;;;6.47;3.05;;;18.90;99.90;;;;;;5018653;28;20228;-69
2023/07/19 02:55:17;;;;;;;10.73;3.60;;;18.80;99.90;;;;;;5017860;28;20264;-69
2023/07/19 02:58:06;;;;;;;7.13;3.10;;;18.90;99.90;;;;;;5017172;28;20232;-69
2023/07/19 03:00:55;;;;;;;9.75;3.35;;;19.00;99.90;;;;;;5010335;28;20233;-68
2023/07/19 03:03:45;;;;;;;7.82;3.15;;;19.00;99.90;;;;;;5025554;28;20228;-69
2023/07/19 03:06:35;;;;;;;5.60;3.03;;;19.00;99.90;;;;;;5019503;28;20230;-70
2023/07/19 03:09:24;;;;;;;9.10;3.40;;;19.00;99.90;;;;;;5022399;28;20241;-69
2023/07/19 03:12:14;;;;;;;9.85;3.80;;;19.00;99.90;;;;;;5011280;28;20261;-69
2023/07/19 03:15:03;;;;;;;8.98;4.18;;;19.10;99.90;;;;;;5016184;28;20901;-69
2023/07/19 03:17:53;;;;;;;10.15;3.97;;;19.00;99.90;;;;;;5003608;28;20260;-69
2023/07/19 03:20:43;;;;;;;10.43;3.90;;;19.00;99.90;;;;;;5016255;28;20241;-68
2023/07/19 03:23:34;;;;;;;13.10;4.43;;;19.10;99.90;;;;;;5018438;28;20379;-68
2023/07/19 03:26:23;;;;;;;8.55;3.42;;;19.00;99.90;;;;;;5022414;28;20309;-67
2023/07/19 03:29:11;;;;;;;11.88;3.85;;;19.00;99.90;;;;;;5018088;28;20218;-68
2023/07/19 03:32:01;;;;;;;7.38;3.58;;;19.10;99.90;;;;;;5022128;28;20241;-67
2023/07/19 03:34:50;;;;;;;6.28;3.25;;;19.10;99.90;;;;;;5016413;28;20222;-72
2023/07/19 03:37:44;;;;;;;8.30;3.60;;;19.20;99.90;;;;;;5024070;28;20243;-70
2023/07/19 03:40:35;;;;;;;8.60;3.65;;;19.30;99.90;;;;;;5013448;28;20871;-70
2023/07/19 03:43:24;;;;;;;5.72;3.53;;;19.40;99.90;;;;;;5005641;28;20313;-67
2023/07/19 03:46:13;;;;;;;8.38;3.35;;;19.30;99.90;;;;;;5018592;28;20746;-68
2023/07/19 03:49:03;;;;;;;7.05;3.28;;;19.30;99.90;;;;;;5012520;28;20217;-68
2023/07/19 03:51:52;;;;;;;7.22;3.35;;;19.30;99.90;;;;;;5016669;28;20237;-69
2023/07/19 03:54:41;;;;;;;7.68;3.50;;;19.40;99.90;;;;;;5013391;28;20307;-75
2023/07/19 03:57:31;;;;;;;5.40;3.38;;;19.40;99.90;;;;;;5020629;28;20239;-68
2023/07/19 04:00:21;;;;;;;10.02;3.33;;;19.50;99.90;;;;;;5003881;28;20287;-70
2023/07/19 04:03:10;;;;;;;7.20;3.78;;;19.60;99.90;;;;;;5028667;28;20248;-69
2023/07/19 04:06:00;;;;;;;7.07;3.50;;;19.50;99.90;;;;;;5006804;28;20221;-69
2023/07/19 04:08:49;;;;;;;10.45;4.30;;;19.60;99.90;;;;;;5028791;28;20245;-69
2023/07/19 04:11:41;;;;;;;7.00;3.67;;;19.70;99.90;;;;;;5020797;28;20235;-69
2023/07/19 04:14:33;;;;;;;5.97;3.38;;;19.90;99.90;;;;;;5017177;28;20264;-69
2023/07/19 04:17:22;;;;;;;8.80;3.55;;;19.90;99.90;;;;;;5019613;28;20312;-69
2023/07/19 04:20:11;;;;;;;6.43;3.08;;;19.90;99.90;;;;;;5021429;28;20217;-70
2023/07/19 04:23:01;;;;;;;11.50;3.38;;;20.00;99.90;;;;;;5004851;28;20224;-68
2023/07/19 04:25:50;;;;;;;6.75;3.28;;;20.10;99.90;;;;;;5014758;28;20225;-70
2023/07/19 04:28:39;;;;;;;6.82;3.03;;;20.20;99.90;;;;;;5012199;28;20226;-70
2023/07/19 04:31:29;;;;;;;9.48;3.33;;;20.30;99.90;;;;;;5011656;28;20359;-69
2023/07/19 04:34:18;;;;;;;5.07;3.20;;;20.30;99.90;;;;;;5016560;28;20240;-68
2023/07/19 04:37:07;;;;;;;5.93;2.95;;;20.40;99.90;;;;;;5020508;28;20248;-69
2023/07/19 04:39:57;;;;;;;6.47;2.72;;;20.40;99.50;;;;;;4999115;28;20231;-70
2023/07/19 04:42:46;;;;;;;6.18;2.80;;;20.50;99.90;;;;;;5003273;28;20324;-68
2023/07/19 04:45:36;;;;;;;7.45;3.33;;;20.70;99.90;;;;;;5005019;28;20308;-67
2023/07/19 04:48:27;;;;;;;5.88;2.90;;;20.70;99.30;;;;;;5021065;28;20308;-69
2023/07/19 04:51:15;;;;;;;4.68;2.90;;;20.80;98.70;;;;;;5018845;28;20217;-67
2023/07/19 04:54:05;;;;;;;5.80;3.00;;;20.90;97.80;;;;;;5007644;28;20713;-67
2023/07/19 04:56:54;;;;;;;9.75;3.05;;;20.80;97.20;;;;;;5020948;28;20230;-66
2023/07/19 04:59:43;;;;;;;3.83;2.47;;;21.00;96.50;;;;;;5024447;28;20930;-69
2023/07/19 05:02:33;;;;;;;6.70;3.28;;;21.10;96.10;;;;;;5018117;28;20219;-69
2023/07/19 05:05:25;;;;;;;6.25;4.13;;;21.20;97.60;;;;;;5011096;28;20228;-71
2023/07/19 05:08:14;;;;;;;8.80;4.50;;;21.30;99.90;;;;;;5002134;28;20233;-71
2023/07/19 05:11:04;;;;;;;9.38;4.00;;;21.30;99.90;;;;;;5022048;28;20702;-71
2023/07/19 05:13:53;;;;;;;7.85;3.92;;;21.50;99.90;;;;;;5012746;28;20712;-69
2023/07/19 05:16:42;;;;;;;10.40;3.55;;;21.40;99.90;;;;;;5028279;28;20626;-70
2023/07/19 05:19:31;;;;;;;7.00;3.83;;;21.50;99.90;;;;;;5004381;28;20245;-70
2023/07/19 05:22:22;;;;;;;9.25;3.92;;;21.60;99.90;;;;;;5015522;28;20705;-68
2023/07/19 05:25:11;;;;;;;10.57;4.00;;;21.70;99.90;;;;;;4999980;28;20232;-69
2023/07/19 05:28:01;;;;;;;6.55;3.55;;;21.80;99.90;;;;;;5014200;28;20240;-69
2023/07/19 05:30:50;;;;;;;7.28;3.67;;;22.00;99.80;;;;;;5016735;28;20230;-70
2023/07/19 05:33:38;;;;;;;9.57;3.28;;;22.00;99.50;;;;;;5001680;28;20471;-70
2023/07/19 05:36:27;;;;;;;5.03;2.20;;;22.20;98.80;;;;;;5011709;28;20218;-69
2023/07/19 05:39:18;;;;;;;6.20;2.28;;;22.40;95.80;;;;;;5013943;28;20230;-71
2023/07/19 05:42:08;;;;;;;3.40;2.67;;;22.60;94.90;;;;;;5014252;28;20313;-70
2023/07/19 05:44:56;;;;;;;4.95;2.60;;;23.10;92.90;;;;;;4999420;28;20234;-70
2023/07/19 05:47:45;;;;;;;6.90;2.72;;;23.80;91.80;;;;;;5016634;28;20229;-69
2023/07/19 05:50:34;;;;;;;8.65;2.90;;;23.80;91.70;;;;;;5020384;28;20268;-68
2023/07/19 05:53:23;;;;;;;4.40;2.72;;;23.60;92.50;;;;;;5008790;28;20234;-67
2023/07/19 05:56:14;;;;;;;8.55;2.88;;;23.50;93.90;;;;;;5016349;28;20228;-71
2023/07/19 05:59:04;;;;;;;6.53;2.30;;;23.30;90.90;;;;;;5018068;28;20739;-70
2023/07/19 06:01:53;;;;;;;3.42;2.35;;;23.20;90.70;;;;;;5020519;28;20229;-70
2023/07/19 06:04:43;;;;;;;4.60;2.25;;;23.10;90.60;;;;;;5019089;28;20600;-70
2023/07/19 06:07:32;;;;;;;6.05;2.22;;;23.20;90.30;;;;;;5019809;28;20226;-71
2023/07/19 06:10:21;;;;;;;6.25;2.75;;;23.50;91.10;;;;;;5014643;28;20613;-71
2023/07/19 06:13:13;;;;;;;6.78;3.08;;;25.00;89.50;;;;;;5012648;28;20296;-72
2023/07/19 06:16:02;;;;;;;6.25;3.10;;;25.70;90.10;;;;;;5013825;28;20235;-71
2023/07/19 06:18:51;;;;;;;6.00;3.45;;;24.90;90.60;;;;;;5019224;28;20271;-71
2023/07/19 06:21:40;;;;;;;14.13;3.63;;;24.40;91.90;;;;;;5011004;28;20218;-73
2023/07/19 06:24:29;;;;;;;6.03;2.65;;;23.80;91.10;;;;;;5017952;28;20708;-72
2023/07/19 06:27:18;;;;;;;5.45;2.63;;;23.80;89.60;;;;;;5034532;28;20229;-73
2023/07/19 06:30:10;;;;;;;6.45;2.45;;;23.80;88.10;;;;;;5015543;28;20266;-72
2023/07/19 06:32:58;;;;;;;5.53;2.35;;;23.80;87.30;;;;;;5014021;28;20229;-73
2023/07/19 06:35:51;;;;;;;6.80;1.95;;;23.80;86.70;;;;;;5012178;28;20563;-73
2023/07/19 06:38:41;;;;;;;9.63;2.78;;;24.60;86.50;;;;;;5018040;28;20230;-74
2023/07/19 06:41:29;;;;;;;7.43;2.67;;;25.60;84.10;;;;;;5018452;28;20316;-73
2023/07/19 06:44:19;;;;;;;7.65;2.88;;;25.50;84.00;;;;;;5019096;28;20720;-73
2023/07/19 06:47:09;;;;;;;6.22;2.10;;;25.10;84.50;;;;;;5016638;28;20280;-72
2023/07/19 06:50:01;;;;;;;6.35;2.03;;;24.90;81.10;;;;;;4990103;28;20373;-71
2023/07/19 06:52:50;;;;;;;4.55;1.90;;;24.60;82.00;;;;;;5003469;28;20234;-72
2023/07/19 06:55:40;;;;;;;5.40;2.08;;;24.50;82.50;;;;;;4996903;28;20221;-71
2023/07/19 06:58:29;;;;;;;5.55;1.90;;;24.50;80.50;;;;;;5015716;28;20218;-71
2023/07/19 07:01:17;;;;;;;3.55;1.80;;;24.50;80.30;;;;;;5016841;28;20693;-71
2023/07/19 07:04:09;;;;;;;2.78;1.70;;;24.50;81.00;;;;;;5000218;28;20933;-74
2023/07/19 07:06:58;;;;;;;3.00;1.80;;;24.60;80.10;;;;;;5010585;28;20359;-73
2023/07/19 07:09:46;;;;;;;6.70;2.20;;;24.70;84.50;;;;;;5014305;28;20225;-73
2023/07/19 07:12:35;;;;;;;6.22;1.88;;;24.70;81.00;;;;;;5007192;28;20233;-74
2023/07/19 07:15:24;;;;;;;6.20;2.42;;;24.90;80.30;;;;;;5004610;28;20238;-75
2023/07/19 07:18:13;;;;;;;3.08;2.08;;;25.10;78.80;;;;;;5016220;28;20601;-75
2023/07/19 07:21:04;;;;;;;5.53;1.85;;;25.10;76.80;;;;;;5017116;28;20228;-72
2023/07/19 07:23:53;;;;;;;7.07;2.30;;;25.40;78.00;;;;;;5015197;28;21151;-74
2023/07/19 07:26:42;;;;;;;3.30;2.10;;;25.50;77.20;;;;;;5015289;28;20313;-75
2023/07/19 07:29:30;;;;;;;5.40;2.30;;;25.80;78.70;;;;;;5021653;28;20267;-73
2023/07/19 07:32:20;;;;;;;7.32;2.28;;;26.00;75.40;;;;;;5019829;28;20237;-71
2023/07/19 07:35:09;;;;;;;9.60;3.20;;;26.30;74.70;;;;;;5019638;28;20325;-72
2023/07/19 07:37:59;;;;;;;8.50;2.15;;;26.70;76.80;;;;;;5034308;28;20318;-74
2023/07/19 07:40:48;;;;;;;6.43;1.90;;;27.00;73.20;;;;;;5028704;28;20690;-75
2023/07/19 07:43:37;;;;;;;2.58;1.40;;;27.20;70.80;;;;;;5021328;28;20225;-75
2023/07/19 07:46:27;;;;;;;3.40;1.70;;;27.20;69.80;;;;;;5025166;28;20376;-76
2023/07/19 07:49:16;;;;;;;2.78;1.70;;;27.30;68.00;;;;;;5007960;28;20605;-76
2023/07/19 07:52:05;;;;;;;4.80;1.75;;;28.00;68.50;;;;;;5016528;28;20386;-76
2023/07/19 07:54:56;;;;;;;3.70;1.40;;;28.40;68.70;;;;;;5017703;28;20915;-74
2023/07/19 07:57:45;;;;;;;5.82;1.52;;;28.40;64.50;;;;;;5020779;28;20222;-75
2023/07/19 08:00:34;;;;;;;2.47;1.58;;;28.50;64.60;;;;;;5027213;28;20288;-75
2023/07/19 08:03:23;;;;;;;6.03;1.55;;;29.20;66.20;;;;;;5018753;28;20227;-73
2023/07/19 08:06:15;;;;;;;3.47;1.83;;;29.40;63.30;;;;;;5016841;28;20613;-75
2023/07/19 08:09:04;;;;;;;2.47;1.88;;;29.50;66.20;;;;;;5021944;28;20233;-75
2023/07/19 08:11:54;;;;;;;2.70;1.70;;;29.70;65.80;;;;;;5018813;28;20217;-74
2023/07/19 08:14:43;;;;;;;1.95;1.42;;;30.00;64.20;;;;;;5016981;28;20233;-76
2023/07/19 08:17:32;;;;;;;2.80;1.65;;;30.00;61.00;;;;;;5018207;28;20718;-76
2023/07/19 08:20:21;;;;;;;4.07;1.95;;;30.40;60.40;;;;;;5022340;28;20379;-75
2023/07/19 08:23:10;;;;;;;3.78;1.45;;;30.60;60.70;;;;;;5024357;28;20260;-75
2023/07/19 08:26:00;;;;;;;3.35;1.52;;;30.80;60.50;;;;;;5021757;28;20224;-77
2023/07/19 08:28:51;;;;;;;8.98;2.17;;;30.40;57.30;;;;;;5007532;28;20911;-77
2023/07/19 08:31:40;;;;;;;2.58;1.35;;;30.80;57.70;;;;;;5022933;28;20225;-75
2023/07/19 08:34:28;;;;;;;2.45;1.80;;;31.00;60.80;;;;;;5030207;28;20247;-75
2023/07/19 08:37:18;;;;;;;1.58;1.40;;;31.10;57.60;;;;;;5013874;28;20270;-75
2023/07/19 08:40:08;;;;;;;3.83;1.88;;;31.40;57.80;;;;;;5018712;28;21036;-75
2023/07/19 08:42:57;;;;;;;2.75;1.40;;;31.70;59.20;;;;;;5005384;28;20232;-78
2023/07/19 08:45:47;;;;;;;2.70;1.48;;;31.80;58.40;;;;;;5021835;28;20824;-75
2023/07/19 08:48:38;;;;;;;5.70;1.60;;;31.10;56.10;;;;;;5009494;28;20359;-75
2023/07/19 08:51:27;;;;;;;3.38;1.50;;;30.70;58.90;;;;;;5028752;28;20225;-76
2023/07/19 08:54:16;;;;;;;2.35;1.75;;;30.20;56.90;;;;;;5020409;28;20220;-75
2023/07/19 08:57:05;;;;;;;3.88;1.90;;;30.40;60.00;;;;;;5015218;28;20220;-74
2023/07/19 08:59:54;;;;;;;2.95;1.42;;;31.00;57.00;;;;;;5013608;28;20224;-74
2023/07/19 09:02:45;;;;;;;4.28;1.48;;;31.30;58.10;;;;;;5017367;28;20233;-71
2023/07/19 09:05:38;;;;;;;3.47;1.67;;;31.60;60.00;;;;;;5008139;28;20252;-72
2023/07/19 09:08:36;;;;;;;3.50;1.60;;;31.30;57.20;;;;;;5018097;28;20228;-72
2023/07/19 09:11:25;;;;;;;3.85;1.73;;;32.10;60.20;;;;;;5021005;28;20823;-74
2023/07/19 09:14:14;;;;;;;6.63;1.88;;;32.30;54.50;;;;;;5019003;28;20224;-72
2023/07/19 09:17:04;;;;;;;3.42;1.40;;;32.50;56.20;;;;;;5012886;28;20286;-70
2023/07/19 09:19:54;;;;;;;2.88;1.40;;;32.40;52.70;;;;;;5017675;28;20672;-78
2023/07/19 09:22:44;;;;;;;3.00;1.60;;;32.30;52.30;;;;;;5020716;28;20447;-77
2023/07/19 09:25:33;;;;;;;3.78;2.05;;;32.20;55.10;;;;;;5020556;28;20236;-77
2023/07/19 09:28:23;;;;;;;7.90;2.05;;;32.50;52.20;;;;;;5009072;28;20220;-76
2023/07/19 09:31:14;;;;;;;4.93;1.40;;;32.90;51.00;;;;;;5020841;28;20229;-77
2023/07/19 09:34:14;;;;;;;2.22;1.50;;;32.60;50.30;;;;;;5016774;28;20387;-77
2023/07/19 09:37:06;;;;;;;7.57;1.65;;;32.40;53.90;;;;;;5013727;28;20989;-75
2023/07/19 09:39:55;;;;;;;6.60;1.60;;;33.80;53.40;;;;;;5013290;28;20976;-76
2023/07/19 09:42:44;;;;;;;1.88;1.50;;;33.60;52.50;;;;;;5023991;28;20755;-77
2023/07/19 09:45:34;;;;;;;4.40;1.88;;;32.40;52.10;;;;;;5021176;28;20240;-76
2023/07/19 09:48:23;;;;;;;4.43;1.40;;;31.80;52.20;;;;;;4982693;28;20369;-77
2023/07/19 09:51:14;;;;;;;3.65;1.60;;;31.20;54.00;;;;;;4983123;28;20801;-78
2023/07/19 09:54:19;;;;;;;3.38;1.60;;;31.00;56.50;;;;;;5116830;27;20616;-74
2023/07/19 09:57:08;;;;;;;4.30;1.85;;;30.40;57.30;;;;;;5102707;28;20364;-75
2023/07/19 09:59:57;;;;;;;1.90;1.40;;;29.90;56.20;;;;;;5094813;28;20271;-75
2023/07/19 10:02:46;;;;;;;3.35;1.92;;;31.00;59.40;;;;;;5090575;28;20340;-76
2023/07/19 10:05:35;;;;;;;5.82;1.90;;;32.70;53.20;;;;;;5092139;28;20233;-76
2023/07/19 10:08:24;;;;;;;3.95;1.80;;;33.70;53.10;;;;;;5099979;28;20230;-76
2023/07/19 10:11:24;;;;;;;6.75;2.00;;;34.30;52.60;;;;;;5086170;28;20790;-75
2023/07/19 10:14:25;;;;;;;3.15;1.48;;;33.50;55.00;;;;;;5079935;28;20651;-76
2023/07/19 10:17:22;;;;;;;4.55;1.80;;;35.10;54.00;;;;;;5081098;28;20230;-77
2023/07/19 10:20:15;;;;;;;4.20;1.75;;;36.40;51.30;;;;;;5095566;28;20223;-76
2023/07/19 10:23:06;;;;;;;3.83;1.60;;;36.60;49.80;;;;;;5105024;28;20232;-77
2023/07/19 10:25:55;;;;;;;3.35;1.60;;;38.20;48.60;;;;;;5087898;28;20233;-76
2023/07/19 10:29:01;;;;;;;2.30;1.70;;;39.50;47.40;;;;;;5083503;28;20647;-75
2023/07/19 10:31:50;;;;;;;1.83;1.63;;;39.90;46.50;;;;;;5095155;28;20333;-75
2023/07/19 10:34:39;;;;;;;1.80;1.60;;;39.60;44.60;;;;;;5078633;28;20238;-75
2023/07/19 10:37:33;;;;;;;4.50;1.50;;;40.50;46.40;;;;;;5085926;28;20383;-74
2023/07/19 10:40:22;;;;;;;3.78;1.92;;;40.40;43.80;;;;;;5087772;28;20225;-75
2023/07/19 10:43:11;;;;;;;4.28;1.80;;;39.70;44.50;;;;;;5100792;28;20226;-76
2023/07/19 10:46:04;;;;;;;2.40;1.65;;;39.80;44.00;;;;;;5093999;28;20226;-76
2023/07/19 10:48:53;;;;;;;3.70;1.52;;;39.40;44.50;;;;;;5079653;28;20709;-75
2023/07/19 10:51:52;;;;;;;3.15;1.58;;;39.20;44.60;;;;;;5074406;28;20222;-74
2023/07/19 10:54:54;;;;;;;4.10;1.70;;;37.50;45.40;;;;;;5080911;28;20220;-75
2023/07/19 10:58:03;;;;;;;2.25;1.75;;;35.50;49.60;;;;;;5090106;28;20806;-75
2023/07/19 11:00:53;;;;;;;3.25;1.60;;;33.90;50.20;;;;;;5087579;28;20370;-75
2023/07/19 11:03:47;;;;;;;2.60;1.65;;;33.40;49.70;;;;;;5074414;28;20233;-75
2023/07/19 11:06:39;;;;;;;3.95;1.50;;;35.00;51.00;;;;;;5079813;28;20912;-75
2023/07/19 11:09:27;;;;;;;2.15;1.48;;;36.70;45.30;;;;;;5068985;28;20666;-75
2023/07/19 11:12:16;;;;;;;3.53;1.73;;;37.80;43.80;;;;;;5067984;28;20226;-76
2023/07/19 11:15:09;;;;;;;3.45;1.60;;;38.80;43.30;;;;;;5067585;28;20215;-76
2023/07/19 11:17:58;;;;;;;2.80;1.70;;;38.50;46.30;;;;;;5079627;28;20250;-75
2023/07/19 11:20:49;;;;;;;3.50;1.80;;;38.80;45.60;;;;;;5078026;28;20231;-76
2023/07/19 11:23:41;;;;;;;2.80;1.83;;;38.20;44.60;;;;;;5059378;28;20922;-76
2023/07/19 11:26:31;;;;;;;7.75;1.70;;;37.40;44.70;;;;;;5083624;28;20225;-75
2023/07/19 11:29:20;;;;;;;2.97;1.50;;;35.50;47.10;;;;;;5065251;28;20304;-75
2023/07/19 11:32:18;;;;;;;1.98;1.60;;;34.30;48.60;;;;;;5075080;28;20771;-75
2023/07/19 11:35:08;;;;;;;5.18;1.63;;;33.10;50.70;;;;;;5072199;28;20238;-75
2023/07/19 11:37:58;;;;;;;6.53;1.70;;;32.20;51.80;;;;;;5074366;28;20864;-77
2023/07/19 11:40:47;;;;;;;2.28;1.70;;;31.60;50.90;;;;;;5072037;28;20228;-75
2023/07/19 11:43:45;;;;;;;1.70;1.60;;;31.10;48.20;;;;;;5066137;28;20224;-75
2023/07/19 11:46:34;;;;;;;5.90;1.73;;;31.60;49.30;;;;;;5070703;28;20208;-74
2023/07/19 11:49:23;;;;;;;2.28;1.65;;;33.00;48.20;;;;;;5066469;28;20239;-75
2023/07/19 11:52:12;;;;;;;2.25;1.83;;;34.00;48.30;;;;;;5068421;28;20360;-75
2023/07/19 11:55:02;;;;;;;2.30;1.60;;;32.50;49.40;;;;;;5076658;28;20231;-75
2023/07/19 11:57:52;;;;;;;4.93;2.08;;;31.80;50.90;;;;;;5068007;28;20215;-75
2023/07/19 12:00:41;;;;;;;4.28;1.80;;;31.40;50.40;;;;;;5063349;28;20802;-75
2023/07/19 12:03:30;;;;;;;3.13;1.70;;;31.00;53.50;;;;;;5075953;28;20218;-75
2023/07/19 12:06:20;;;;;;;2.38;1.90;;;30.60;52.00;;;;;;5073381;28;20292;-75
2023/07/19 12:09:10;;;;;;;2.63;1.92;;;30.10;54.20;;;;;;5063208;28;20223;-75
2023/07/19 12:12:00;;;;;;;4.55;1.80;;;29.80;52.90;;;;;;5072944;28;20756;-75
2023/07/19 12:14:49;;;;;;;3.35;1.60;;;29.70;52.20;;;;;;5067107;28;20223;-77
2023/07/19 12:17:42;;;;;;;2.22;1.75;;;29.80;54.20;;;;;;5062864;28;20227;-75
2023/07/19 12:20:31;;;;;;;2.95;2.10;;;32.10;53.20;;;;;;5065951;28;20207;-75
2023/07/19 12:23:21;;;;;;;3.00;1.75;;;33.40;52.90;;;;;;5071856;28;20233;-76
2023/07/19 12:26:21;;;;;;;2.65;1.73;;;34.30;50.50;;;;;;5067945;28;20236;-75
2023/07/19 12:29:15;;;;;;;2.75;1.80;;;36.40;48.70;;;;;;5070375;28;20516;-75
2023/07/19 12:32:05;;;;;;;2.72;1.85;;;38.60;48.10;;;;;;5066608;28;20211;-76
2023/07/19 12:34:54;;;;;;;2.13;1.92;;;39.90;45.20;;;;;;5061311;28;20434;-77
2023/07/19 12:37:43;;;;;;;5.15;1.92;;;35.80;45.60;;;;;;5073793;28;20239;-75
2023/07/19 12:40:34;;;;;;;2.58;2.00;;;33.60;49.00;;;;;;5068791;28;20317;-76
2023/07/19 12:43:23;;;;;;;3.75;1.77;;;32.50;52.00;;;;;;5066443;28;20222;-77
2023/07/19 12:46:13;;;;;;;4.03;2.08;;;37.00;49.80;;;;;;5076204;28;20356;-78
2023/07/19 12:49:02;;;;;;;7.65;1.80;;;41.60;43.60;;;;;;5068476;28;20223;-76
2023/07/19 12:51:52;;;;;;;3.38;1.90;;;41.40;41.60;;;;;;5072962;28;21740;-79
2023/07/19 12:54:40;;;;;;;4.47;1.90;;;39.10;43.70;;;;;;5065299;28;20337;-79
2023/07/19 12:57:33;;;;;;;3.08;1.52;;;36.30;46.00;;;;;;5071231;28;20244;-77
2023/07/19 13:00:23;;;;;;;3.25;1.67;;;34.40;45.10;;;;;;5074264;28;20238;-78
2023/07/19 13:03:14;;;;;;;3.50;1.70;;;33.10;48.60;;;;;;5064336;28;20223;-75
2023/07/19 13:06:03;;;;;;;7.40;1.80;;;32.40;48.50;;;;;;5064403;28;20226;-75
2023/07/19 13:08:52;;;;;;;2.70;1.80;;;31.50;51.00;;;;;;5080380;28;20732;-74
2023/07/19 13:11:42;;;;;;;3.45;1.98;;;31.40;53.30;;;;;;5075368;28;20709;-77
2023/07/19 13:14:30;;;;;;;4.13;1.90;;;31.30;55.10;;;;;;5070798;28;20283;-78
2023/07/19 13:17:23;;;;;;;3.58;1.80;;;31.00;53.70;;;;;;5058608;28;20227;-77
2023/07/19 13:20:14;;;;;;;4.05;1.90;;;30.60;54.20;;;;;;5078871;28;20931;-77
2023/07/19 13:23:03;;;;;;;2.55;1.70;;;30.40;55.10;;;;;;5061877;28;20228;-79
2023/07/19 13:25:53;;;;;;;4.75;1.80;;;30.20;54.00;;;;;;5076056;28;20231;-78
2023/07/19 13:28:45;;;;;;;5.63;2.15;;;30.00;54.60;;;;;;5059176;28;20215;-77
2023/07/19 13:31:34;;;;;;;5.38;1.95;;;29.80;56.00;;;;;;5074072;28;20257;-73
2023/07/19 13:34:23;;;;;;;5.78;3.05;;;29.30;53.70;;;;;;5070982;28;20733;-73
2023/07/19 13:37:14;;;;;;;2.55;2.05;;;29.30;54.80;;;;;;5066444;28;20822;-74
2023/07/19 13:40:06;;;;;;;3.00;2.20;;;29.20;55.60;;;;;;5057545;28;20226;-77
2023/07/19 13:42:55;;;;;;;3.17;1.80;;;29.20;57.00;;;;;;5071575;28;20218;-77
2023/07/19 13:45:45;;;;;;;3.40;2.10;;;29.10;58.30;;;;;;5071927;28;20231;-76
2023/07/19 13:48:34;;;;;;;4.53;2.15;;;28.80;54.30;;;;;;5075317;28;20229;-76
2023/07/19 13:51:23;;;;;;;5.63;2.60;;;28.70;55.10;;;;;;5067566;28;20211;-73
2023/07/19 13:54:14;;;;;;;8.00;2.40;;;28.90;56.60;;;;;;5061986;28;20229;-74
2023/07/19 13:57:04;;;;;;;4.22;2.38;;;28.90;56.40;;;;;;5064450;28;20223;-73
2023/07/19 13:59:53;;;;;;;2.97;2.22;;;28.80;56.00;;;;;;5078715;28;20231;-82
2023/07/19 14:02:41;;;;;;;5.40;2.13;;;28.90;57.00;;;;;;5048848;28;20739;-84
2023/07/19 14:05:30;;;;;;;2.55;1.98;;;28.90;55.20;;;;;;5066691;28;20276;-77
2023/07/19 14:08:22;;;;;;;4.10;2.30;;;28.80;56.50;;;;;;5075004;28;20218;-79
2023/07/19 14:11:13;;;;;;;3.15;2.33;;;28.80;57.60;;;;;;5074584;28;20223;-79
2023/07/19 14:14:03;;;;;;;5.78;2.40;;;28.70;57.00;;;;;;5073450;28;20725;-73
2023/07/19 14:16:51;;;;;;;4.50;2.30;;;28.60;56.70;;;;;;5056426;28;20238;-71
2023/07/19 14:19:40;;;;;;;7.35;2.65;;;28.50;58.20;;;;;;5077838;28;20230;-71
2023/07/19 14:22:29;;;;;;;2.72;2.05;;;28.70;58.00;;;;;;5075178;28;20231;-71
2023/07/19 14:25:18;;;;;;;3.95;1.98;;;28.70;57.50;;;;;;5066806;28;20628;-71
2023/07/19 14:28:09;;;;;;;2.53;2.17;;;28.80;55.30;;;;;;5069132;28;20824;-71
2023/07/19 14:31:01;;;;;;;4.72;2.47;;;28.30;55.90;;;;;;5071809;28;20258;-72
2023/07/19 14:33:50;;;;;;;5.13;2.03;;;28.30;55.90;;;;;;5078399;28;20215;-71
2023/07/19 14:36:39;;;;;;;4.70;2.28;;;28.30;55.40;;;;;;5066445;28;20215;-71
2023/07/19 14:39:28;;;;;;;2.95;1.85;;;28.40;57.40;;;;;;5073287;28;20223;-71
2023/07/19 14:42:17;;;;;;;2.20;2.00;;;28.40;57.30;;;;;;5071176;28;20649;-70
2023/07/19 14:45:08;;;;;;;3.88;2.20;;;28.40;57.10;;;;;;5058996;28;20323;-70